createdAt,value
2019-04-04T00:02:23.781Z,12.35
2019-04-04T00:04:52.503Z,12.32
2019-04-04T00:07:20.720Z,12.17
2019-04-04T00:09:48.555Z,12.09
2019-04-04T00:12:16.307Z,12.16
2019-04-04T00:14:44.265Z,12.19
2019-04-04T00:17:12.073Z,12.24
2019-04-04T00:19:39.872Z,12.51
2019-04-04T00:22:07.709Z,12.87
2019-04-04T00:24:35.661Z,12.66
2019-04-04T00:27:03.412Z,12.43
2019-04-04T00:29:31.212Z,12.39
2019-04-04T00:31:59.010Z,12.57
2019-04-04T00:34:28.108Z,12.49
2019-04-04T00:36:56.692Z,12.22
2019-04-04T00:39:24.522Z,12.34
2019-04-04T00:41:52.294Z,12.33
2019-04-04T00:44:22.718Z,12.17
2019-04-04T00:46:49.733Z,12.14
2019-04-04T00:49:17.508Z,12.15
2019-04-04T00:51:45.279Z,11.84
2019-04-04T00:54:14.121Z,11.76
2019-04-04T00:56:42.460Z,11.78
2019-04-04T00:59:10.246Z,11.70
2019-04-04T01:01:38.011Z,11.56
2019-04-04T01:04:05.781Z,11.45
2019-04-04T01:06:34.289Z,11.40
2019-04-04T01:09:04.642Z,11.28
2019-04-04T01:11:32.423Z,11.46
2019-04-04T01:14:00.594Z,11.36
2019-04-04T01:16:28.401Z,11.29
2019-04-04T01:18:56.165Z,11.02
2019-04-04T01:21:24.026Z,11.01
2019-04-04T01:23:51.821Z,10.84
2019-04-04T01:26:19.599Z,10.66
2019-04-04T01:28:47.365Z,10.54
2019-04-04T01:31:15.541Z,10.55
2019-04-04T01:33:43.367Z,10.45
2019-04-04T01:36:11.159Z,10.26
2019-04-04T01:38:38.905Z,10.35
2019-04-04T01:41:06.652Z,10.53
2019-04-04T01:43:34.813Z,10.40
2019-04-04T01:46:02.540Z,10.30
2019-04-04T01:48:30.265Z,10.29
2019-04-04T01:50:58.035Z,10.15
2019-04-04T01:53:25.763Z,10.07
2019-04-04T01:55:53.805Z,9.85
2019-04-04T01:58:21.537Z,9.84
2019-04-04T02:00:49.289Z,9.81
2019-04-04T02:03:17.793Z,9.63
2019-04-04T02:05:45.521Z,9.50
2019-04-04T02:08:13.272Z,9.53
2019-04-04T02:10:40.985Z,9.59
2019-04-04T02:13:09.865Z,9.55
2019-04-04T02:15:38.245Z,9.44
2019-04-04T02:18:05.998Z,9.34
2019-04-04T02:20:33.867Z,9.21
2019-04-04T02:23:01.950Z,9.05
2019-04-04T02:25:29.744Z,8.92
2019-04-04T02:27:57.898Z,8.96
2019-04-04T02:30:25.621Z,9.17
2019-04-04T02:32:53.694Z,9.17
2019-04-04T02:35:21.756Z,9.32
2019-04-04T02:37:49.533Z,9.27
2019-04-04T02:40:17.279Z,9.47
2019-04-04T02:42:45.062Z,9.72
2019-04-04T02:45:12.922Z,9.80
2019-04-04T02:47:40.746Z,9.91
2019-04-04T02:50:08.891Z,9.98
2019-04-04T02:52:36.634Z,9.98
2019-04-04T02:55:04.823Z,10.06
2019-04-04T02:57:32.591Z,9.88
2019-04-04T03:00:00.425Z,9.95
2019-04-04T03:02:28.188Z,9.98
2019-04-04T03:04:55.946Z,10.00
2019-04-04T03:07:23.679Z,10.05
2019-04-04T03:09:51.399Z,9.94
2019-04-04T03:12:19.287Z,9.99
2019-04-04T03:14:50.313Z,10.15
2019-04-04T03:17:16.706Z,10.12
2019-04-04T03:19:44.686Z,10.04
2019-04-04T03:22:12.501Z,10.04
2019-04-04T03:24:44.472Z,10.20
2019-04-04T03:27:10.013Z,10.19
2019-04-04T03:29:38.448Z,10.12
2019-04-04T03:32:13.135Z,10.16
2019-04-04T03:34:36.141Z,9.94
2019-04-04T03:37:06.639Z,9.64
2019-04-04T03:39:33.561Z,9.37
2019-04-04T03:42:01.334Z,9.21
2019-04-04T03:44:29.063Z,9.18
2019-04-04T03:46:56.810Z,9.20
2019-04-04T03:49:26.975Z,9.27
2019-04-04T03:51:54.728Z,9.36
2019-04-04T03:54:25.105Z,9.37
2019-04-04T03:56:52.788Z,9.15
2019-04-04T03:59:20.564Z,9.13
2019-04-04T04:01:48.319Z,9.22
2019-04-04T04:04:16.079Z,9.15
2019-04-04T04:06:44.007Z,9.31
2019-04-04T04:09:11.777Z,9.36
2019-04-04T04:11:39.543Z,9.33
2019-04-04T04:14:07.299Z,9.52
2019-04-04T04:16:36.104Z,9.55
2019-04-04T04:19:04.340Z,9.58
2019-04-04T04:21:32.062Z,9.55
2019-04-04T04:23:59.820Z,9.63
2019-04-04T04:26:27.552Z,9.60
2019-04-04T04:28:55.344Z,9.60
2019-04-04T04:31:23.093Z,9.76
2019-04-04T04:33:50.828Z,9.80
2019-04-04T04:36:18.576Z,9.71
2019-04-04T04:38:46.344Z,9.69
2019-04-04T04:41:14.126Z,9.64
2019-04-04T04:43:41.857Z,9.64
2019-04-04T04:46:09.630Z,9.65
2019-04-04T04:48:37.387Z,9.47
2019-04-04T04:51:05.107Z,9.54
2019-04-04T04:53:32.843Z,9.83
2019-04-04T04:56:00.792Z,9.92
2019-04-04T04:58:28.628Z,10.08
2019-04-04T05:00:56.417Z,10.11
2019-04-04T05:03:24.812Z,10.13
2019-04-04T05:05:52.705Z,10.19
2019-04-04T05:08:20.469Z,10.25
2019-04-04T05:10:48.190Z,10.15
2019-04-04T05:13:15.947Z,10.11
2019-04-04T05:15:43.697Z,10.07
2019-04-04T05:18:11.973Z,10.09
2019-04-04T05:20:39.909Z,9.93
2019-04-04T05:23:07.611Z,10.13
2019-04-04T05:25:35.493Z,10.12
2019-04-04T05:28:06.105Z,10.15
2019-04-04T05:30:32.920Z,10.12
2019-04-04T05:33:00.671Z,10.14
2019-04-04T05:35:28.412Z,10.15
2019-04-04T05:37:56.153Z,10.14
2019-04-04T05:40:24.287Z,10.16
2019-04-04T05:42:52.083Z,10.28
2019-04-04T05:45:19.877Z,10.33
2019-04-04T05:47:47.631Z,10.38
2019-04-04T05:50:16.472Z,10.34
2019-04-04T05:52:44.364Z,10.30
2019-04-04T05:55:12.097Z,10.32
2019-04-04T05:57:39.867Z,10.54
2019-04-04T06:00:10.618Z,10.50
2019-04-04T06:02:38.373Z,10.49
2019-04-04T06:05:06.643Z,10.65
2019-04-04T06:07:36.412Z,10.70
2019-04-04T06:10:04.680Z,10.70
2019-04-04T06:12:32.444Z,10.81
2019-04-04T06:15:01.129Z,10.84
2019-04-04T06:17:29.010Z,10.79
2019-04-04T06:19:56.758Z,10.82
2019-04-04T06:22:24.515Z,10.67
2019-04-04T06:24:52.429Z,10.76
2019-04-04T06:27:20.193Z,10.86
2019-04-04T06:29:48.340Z,10.64
2019-04-04T06:32:16.105Z,10.52
2019-04-04T06:34:44.299Z,10.45
2019-04-04T06:37:12.568Z,10.65
2019-04-04T06:39:40.278Z,10.38
2019-04-04T06:42:11.168Z,10.64
2019-04-04T06:44:37.691Z,10.95
2019-04-04T06:47:05.551Z,11.20
2019-04-04T06:49:35.478Z,11.35
2019-04-04T06:52:02.994Z,11.19
2019-04-04T06:54:30.787Z,11.22
2019-04-04T06:56:59.274Z,11.26
2019-04-04T06:59:27.144Z,10.88
2019-04-04T07:01:54.944Z,10.73
2019-04-04T07:04:22.679Z,10.65
2019-04-04T07:06:50.435Z,10.84
2019-04-04T07:09:19.176Z,11.27
2019-04-04T07:11:47.016Z,11.61
2019-04-04T07:14:14.770Z,12.07
2019-04-04T07:16:42.543Z,12.59
2019-04-04T07:19:14.146Z,12.87
2019-04-04T07:21:40.027Z,12.87
2019-04-04T07:24:07.754Z,13.21
2019-04-04T07:26:35.533Z,12.98
2019-04-04T07:29:03.473Z,12.92
2019-04-04T07:31:33.432Z,12.76
2019-04-04T07:34:00.855Z,12.61
2019-04-04T07:36:28.623Z,12.66
2019-04-04T07:38:58.171Z,12.86
2019-04-04T07:41:26.303Z,13.64
2019-04-04T07:43:54.051Z,14.39
2019-04-04T07:46:21.765Z,14.56
2019-04-04T07:48:51.581Z,14.61
2019-04-04T07:51:19.167Z,13.96
2019-04-04T07:53:46.893Z,13.68
2019-04-04T07:56:14.947Z,13.68
2019-04-04T07:58:42.709Z,13.86
2019-04-04T08:01:10.447Z,14.04
2019-04-04T08:03:38.217Z,14.09
2019-04-04T08:06:06.004Z,14.91
2019-04-04T08:08:33.905Z,15.75
2019-04-04T08:11:02.205Z,16.18
2019-04-04T08:13:29.948Z,15.79
2019-04-04T08:15:57.729Z,15.08
2019-04-04T08:18:25.453Z,15.12
2019-04-04T08:20:53.236Z,14.83
2019-04-04T08:23:21.770Z,15.45
2019-04-04T08:25:49.524Z,15.97
2019-04-04T08:28:17.250Z,15.70
2019-04-04T08:30:45.112Z,15.83
2019-04-04T08:33:13.373Z,14.53
2019-04-04T08:35:41.136Z,14.68
2019-04-04T08:38:08.896Z,15.12
2019-04-04T08:40:36.679Z,16.31
2019-04-04T08:43:04.423Z,16.77
2019-04-04T08:45:32.160Z,17.19
2019-04-04T08:47:59.909Z,19.39
2019-04-04T08:50:27.689Z,21.55
2019-04-04T08:52:55.422Z,24.72
2019-04-04T08:55:23.159Z,26.63
2019-04-04T08:57:50.912Z,29.01
2019-04-04T09:00:18.632Z,30.66
2019-04-04T09:02:47.608Z,31.13
2019-04-04T09:05:15.344Z,32.84
2019-04-04T09:07:43.101Z,33.69
2019-04-04T09:10:11.191Z,35.15
2019-04-04T09:12:38.984Z,36.58
2019-04-04T09:15:07.875Z,36.98
2019-04-04T09:17:35.633Z,37.07
2019-04-04T09:20:05.151Z,38.24
2019-04-04T09:22:32.876Z,38.04
2019-04-04T09:25:01.541Z,37.25
2019-04-04T09:27:29.456Z,37.71
2019-04-04T09:29:57.155Z,36.13
2019-04-04T09:32:24.899Z,37.48
2019-04-04T09:34:52.839Z,38.63
2019-04-04T09:37:20.575Z,38.96
2019-04-04T09:39:48.343Z,39.20
2019-04-04T09:42:16.398Z,40.69
2019-04-04T09:44:44.158Z,41.24
2019-04-04T09:47:12.180Z,41.33
2019-04-04T09:49:39.912Z,39.20
2019-04-04T09:52:07.659Z,40.17
2019-04-04T09:54:35.402Z,36.47
2019-04-04T09:57:03.144Z,36.43
2019-04-04T09:59:30.876Z,38.11
2019-04-04T10:01:58.625Z,36.83
2019-04-04T10:04:26.344Z,35.90
2019-04-04T10:06:54.329Z,39.45
2019-04-04T10:09:22.056Z,41.27
2019-04-04T10:11:49.813Z,42.49
2019-04-04T10:14:17.543Z,42.65
2019-04-04T10:16:45.274Z,41.49
2019-04-04T10:19:13.043Z,40.64
2019-04-04T10:21:40.786Z,40.18
2019-04-04T10:24:08.528Z,42.69
2019-04-04T10:26:36.252Z,39.00
2019-04-04T10:29:04.011Z,36.74
2019-04-04T10:31:31.732Z,38.46
2019-04-04T10:33:59.488Z,41.37
2019-04-04T10:36:27.234Z,42.84
2019-04-04T10:38:54.952Z,42.49
2019-04-04T10:41:22.703Z,43.15
2019-04-04T10:43:50.601Z,43.91
2019-04-04T10:46:18.541Z,44.30
2019-04-04T10:48:46.259Z,42.12
2019-04-04T10:51:14.260Z,42.66
2019-04-04T10:53:41.977Z,42.13
2019-04-04T10:56:09.939Z,43.59
2019-04-04T10:58:38.246Z,41.78
2019-04-04T11:01:06.063Z,44.42
2019-04-04T11:03:33.787Z,40.93
2019-04-04T11:06:01.566Z,39.70
2019-04-04T11:08:29.323Z,40.09
2019-04-04T11:10:58.957Z,40.94
2019-04-04T11:13:33.444Z,40.89
2019-04-04T11:15:56.393Z,41.19
2019-04-04T11:18:24.177Z,41.89
2019-04-04T11:20:52.117Z,39.74
2019-04-04T11:23:19.891Z,40.66
2019-04-04T11:25:48.065Z,42.74
2019-04-04T11:28:15.838Z,43.38
2019-04-04T11:30:43.711Z,43.39
2019-04-04T11:33:11.475Z,42.67
2019-04-04T11:35:39.423Z,43.30
2019-04-04T11:38:07.238Z,43.13
2019-04-04T11:40:34.967Z,41.92
2019-04-04T11:43:02.761Z,38.87
2019-04-04T11:45:30.604Z,36.94
2019-04-04T11:47:59.199Z,39.34
2019-04-04T11:50:27.031Z,40.05
2019-04-04T11:52:54.838Z,40.04
2019-04-04T11:55:22.594Z,42.54
2019-04-04T11:57:50.372Z,42.12
2019-04-04T12:00:26.056Z,42.58
2019-04-04T12:02:53.869Z,42.24
2019-04-04T12:05:21.602Z,43.13
2019-04-04T12:07:49.361Z,42.87
2019-04-04T12:10:17.088Z,43.54
2019-04-04T12:12:44.840Z,44.20
2019-04-04T12:15:12.796Z,42.59
2019-04-04T12:17:40.534Z,44.00
2019-04-04T12:20:08.695Z,44.72
2019-04-04T12:22:36.426Z,43.34
2019-04-04T12:25:04.803Z,43.86
2019-04-04T12:27:32.560Z,43.10
2019-04-04T12:30:00.323Z,42.06
2019-04-04T12:32:28.072Z,41.89
2019-04-04T12:34:55.823Z,40.91
2019-04-04T12:37:23.565Z,41.52
2019-04-04T12:39:51.324Z,40.63
2019-04-04T12:42:19.057Z,40.57
2019-04-04T12:44:46.822Z,41.22
2019-04-04T12:47:14.608Z,41.04
2019-04-04T12:49:42.388Z,41.56
2019-04-04T12:52:10.117Z,41.89
2019-04-04T12:54:37.873Z,43.66
2019-04-04T12:57:05.636Z,44.27
2019-04-04T12:59:33.513Z,44.54
2019-04-04T13:02:03.035Z,44.93
2019-04-04T13:04:32.063Z,44.50
2019-04-04T13:07:00.062Z,44.63
2019-04-04T13:09:27.828Z,43.72
2019-04-04T13:11:55.589Z,43.05
2019-04-04T13:14:23.315Z,43.34
2019-04-04T13:16:51.046Z,43.68
2019-04-04T13:19:18.841Z,43.32
2019-04-04T13:21:46.531Z,42.03
2019-04-04T13:24:14.341Z,41.30
2019-04-04T13:26:43.460Z,39.33
2019-04-04T13:29:11.297Z,39.15
2019-04-04T13:31:39.036Z,39.32
2019-04-04T13:34:06.819Z,38.72
2019-04-04T13:36:36.714Z,37.14
2019-04-04T13:39:09.045Z,37.84
2019-04-04T13:41:37.076Z,39.17
2019-04-04T13:44:04.922Z,41.33
2019-04-04T13:46:32.688Z,42.08
2019-04-04T13:49:00.410Z,41.48
2019-04-04T13:51:28.202Z,41.45
2019-04-04T13:53:55.912Z,40.97
2019-04-04T13:56:23.699Z,41.32
2019-04-04T13:58:51.470Z,41.82
2019-04-04T14:01:19.214Z,41.47
2019-04-04T14:03:48.170Z,41.83
2019-04-04T14:06:15.968Z,41.09
2019-04-04T14:08:45.806Z,39.74
2019-04-04T14:11:13.454Z,37.44
2019-04-04T14:13:41.190Z,37.40
2019-04-04T14:16:08.912Z,37.39
2019-04-04T14:18:39.833Z,37.85
2019-04-04T14:21:06.383Z,37.95
2019-04-04T14:23:34.098Z,37.56
2019-04-04T14:26:02.209Z,36.92
2019-04-04T14:28:29.944Z,36.12
2019-04-04T14:30:58.201Z,33.91
2019-04-04T14:33:25.926Z,33.07
2019-04-04T14:35:53.692Z,33.13
2019-04-04T14:38:21.431Z,32.88
2019-04-04T14:40:49.222Z,31.98
2019-04-04T14:43:16.969Z,31.71
2019-04-04T14:45:44.705Z,31.23
2019-04-04T14:48:12.489Z,30.39
2019-04-04T14:50:40.283Z,29.47
2019-04-04T14:53:08.020Z,27.40
2019-04-04T14:55:35.792Z,26.48
2019-04-04T14:58:03.665Z,25.91
2019-04-04T15:00:31.498Z,25.05
2019-04-04T15:02:59.266Z,24.78
2019-04-04T15:05:26.989Z,24.71
2019-04-04T15:07:54.749Z,24.25
2019-04-04T15:10:22.479Z,23.71
2019-04-04T15:12:50.473Z,23.54
2019-04-04T15:15:18.229Z,23.18
2019-04-04T15:17:45.979Z,22.88
2019-04-04T15:20:13.957Z,22.59
2019-04-04T15:22:41.736Z,22.62
2019-04-04T15:25:10.460Z,22.65
2019-04-04T15:27:38.232Z,22.60
2019-04-04T15:30:06.557Z,22.47
2019-04-04T15:32:34.289Z,22.25
2019-04-04T15:35:02.022Z,22.36
2019-04-04T15:37:29.799Z,22.22
2019-04-04T15:39:57.541Z,22.18
2019-04-04T15:42:25.307Z,22.21
2019-04-04T15:44:53.040Z,22.02
2019-04-04T15:47:20.881Z,22.02
2019-04-04T15:49:49.720Z,21.95
2019-04-04T15:52:17.489Z,21.82
2019-04-04T15:54:45.201Z,21.94
2019-04-04T15:57:12.990Z,21.86
2019-04-04T15:59:40.752Z,21.66
2019-04-04T16:02:08.544Z,21.82
2019-04-04T16:04:36.295Z,21.83
2019-04-04T16:07:04.989Z,21.74
2019-04-04T16:09:32.750Z,21.57
2019-04-04T16:12:00.527Z,21.49
2019-04-04T16:14:28.325Z,21.44
2019-04-04T16:16:56.074Z,21.52
2019-04-04T16:19:24.218Z,21.60
2019-04-04T16:21:51.994Z,21.68
2019-04-04T16:24:19.776Z,21.56
2019-04-04T16:26:47.528Z,21.62
2019-04-04T16:29:15.315Z,21.60
2019-04-04T16:31:43.033Z,21.62
2019-04-04T16:34:10.807Z,21.64
2019-04-04T16:36:38.601Z,21.64
2019-04-04T16:39:07.750Z,21.68
2019-04-04T16:41:35.555Z,21.56
2019-04-04T16:44:03.535Z,21.59
2019-04-04T16:46:31.299Z,21.48
2019-04-04T16:48:59.049Z,21.41
2019-04-04T16:51:26.789Z,21.30
2019-04-04T16:53:54.543Z,21.22
2019-04-04T16:56:22.301Z,21.08
2019-04-04T16:58:50.102Z,20.93
2019-04-04T17:01:17.822Z,20.82
2019-04-04T17:03:45.589Z,20.90
2019-04-04T17:06:13.325Z,20.87
2019-04-04T17:08:41.135Z,20.80
2019-04-04T17:11:08.890Z,20.60
2019-04-04T17:13:36.657Z,20.50
2019-04-04T17:16:04.331Z,20.22
2019-04-04T17:18:32.153Z,20.06
2019-04-04T17:20:59.938Z,20.00
2019-04-04T17:23:27.707Z,19.83
2019-04-04T17:25:55.456Z,19.67
2019-04-04T17:28:23.794Z,19.48
2019-04-04T17:30:51.913Z,19.07
2019-04-04T17:33:19.784Z,18.35
2019-04-04T17:35:47.579Z,17.93
2019-04-04T17:38:15.327Z,17.63
2019-04-04T17:40:43.088Z,17.26
2019-04-04T17:43:10.834Z,17.13
2019-04-04T17:45:39.127Z,16.74
2019-04-04T17:48:07.393Z,16.38
2019-04-04T17:50:35.623Z,16.15
2019-04-04T17:53:03.558Z,15.91
2019-04-04T17:55:31.546Z,15.67
2019-04-04T17:57:59.357Z,15.53
2019-04-04T18:00:28.401Z,15.40
2019-04-04T18:02:56.160Z,15.22
2019-04-04T18:05:24.220Z,15.04
2019-04-04T18:07:51.960Z,14.85
2019-04-04T18:10:19.796Z,14.67
2019-04-04T18:12:47.539Z,14.44
2019-04-04T18:15:15.626Z,14.27
2019-04-04T18:17:43.381Z,14.17
2019-04-04T18:20:11.656Z,14.01
2019-04-04T18:22:39.387Z,13.90
2019-04-04T18:25:08.649Z,13.83
2019-04-04T18:27:36.471Z,13.75
2019-04-04T18:30:06.868Z,13.67
2019-04-04T18:32:34.613Z,13.62
2019-04-04T18:35:02.482Z,13.51
2019-04-04T18:37:30.239Z,13.47
2019-04-04T18:39:57.999Z,13.41
2019-04-04T18:42:25.809Z,13.34
2019-04-04T18:44:53.575Z,13.25
2019-04-04T18:47:21.360Z,13.16
2019-04-04T18:49:49.191Z,13.10
2019-04-04T18:52:16.975Z,13.06
2019-04-04T18:54:44.953Z,13.08
2019-04-04T18:57:13.260Z,13.19
2019-04-04T18:59:41.150Z,13.47
2019-04-04T19:02:08.995Z,13.29
2019-04-04T19:04:36.854Z,13.12
2019-04-04T19:07:04.619Z,13.07
2019-04-04T19:09:32.471Z,12.97
2019-04-04T19:12:00.238Z,12.82
2019-04-04T19:14:27.976Z,12.77
2019-04-04T19:16:55.751Z,12.70
2019-04-04T19:19:23.523Z,12.58
2019-04-04T19:21:51.305Z,12.40
2019-04-04T19:24:19.067Z,12.54
2019-04-04T19:26:46.803Z,12.39
2019-04-04T19:29:14.581Z,12.34
2019-04-04T19:31:42.360Z,12.11
2019-04-04T19:34:10.129Z,12.11
2019-04-04T19:36:37.962Z,11.98
2019-04-04T19:39:09.224Z,11.92
2019-04-04T19:41:37.750Z,12.01
2019-04-04T19:44:05.604Z,11.84
2019-04-04T19:46:37.300Z,11.84
2019-04-04T19:49:03.080Z,11.89
2019-04-04T19:51:30.867Z,11.86
2019-04-04T19:53:58.658Z,11.78
2019-04-04T19:56:26.681Z,11.62
2019-04-04T19:58:54.487Z,11.54
2019-04-04T20:01:22.283Z,11.42
2019-04-04T20:03:50.036Z,11.34
2019-04-04T20:06:17.777Z,11.23
2019-04-04T20:08:45.517Z,11.19
2019-04-04T20:11:13.280Z,11.09
2019-04-04T20:13:41.038Z,11.07
2019-04-04T20:16:08.854Z,11.08
2019-04-04T20:18:36.659Z,11.08
2019-04-04T20:21:04.440Z,11.02
2019-04-04T20:23:32.240Z,10.94
2019-04-04T20:26:00.127Z,10.84
2019-04-04T20:28:28.020Z,10.81
2019-04-04T20:30:55.789Z,10.78
2019-04-04T20:33:23.604Z,10.83
2019-04-04T20:35:51.343Z,10.77
2019-04-04T20:38:19.139Z,10.69
2019-04-04T20:40:48.010Z,10.62
2019-04-04T20:43:15.779Z,10.58
2019-04-04T20:45:43.549Z,10.55
2019-04-04T20:48:11.301Z,10.57
2019-04-04T20:50:39.073Z,10.45
2019-04-04T20:53:06.850Z,10.42
2019-04-04T20:55:34.583Z,10.40
2019-04-04T20:58:02.437Z,10.53
2019-04-04T21:00:30.219Z,10.53
2019-04-04T21:02:58.019Z,10.55
2019-04-04T21:05:25.799Z,10.45
2019-04-04T21:07:53.559Z,10.37
2019-04-04T21:10:21.333Z,10.47
2019-04-04T21:12:49.097Z,10.50
2019-04-04T21:15:16.859Z,10.41
2019-04-04T21:17:44.623Z,10.43
2019-04-04T21:20:13.297Z,10.58
2019-04-04T21:22:41.023Z,10.57
2019-04-04T21:25:09.095Z,10.63
2019-04-04T21:27:36.838Z,10.86
2019-04-04T21:30:05.421Z,10.84
2019-04-04T21:32:33.177Z,10.76
2019-04-04T21:35:00.941Z,10.81
2019-04-04T21:37:28.682Z,10.69
2019-04-04T21:39:56.539Z,10.72
2019-04-04T21:42:24.288Z,10.79
2019-04-04T21:44:52.080Z,11.02
2019-04-04T21:47:19.814Z,11.06
2019-04-04T21:49:47.569Z,10.97
2019-04-04T21:52:15.322Z,10.92
2019-04-04T21:54:43.090Z,10.83
2019-04-04T21:57:10.844Z,10.79
2019-04-04T21:59:38.591Z,10.90
2019-04-04T22:02:06.337Z,11.24
2019-04-04T22:04:34.082Z,11.12
2019-04-04T22:07:01.838Z,10.96
2019-04-04T22:09:29.589Z,10.85
2019-04-04T22:11:57.329Z,10.73
2019-04-04T22:14:25.084Z,10.70
2019-04-04T22:16:52.806Z,10.89
2019-04-04T22:19:20.569Z,10.99
2019-04-04T22:21:48.296Z,10.98
2019-04-04T22:24:16.019Z,10.92
2019-04-04T22:26:43.787Z,11.01
2019-04-04T22:29:11.819Z,11.19
2019-04-04T22:31:39.570Z,11.09
2019-04-04T22:34:07.363Z,11.04
2019-04-04T22:36:35.134Z,11.00
2019-04-04T22:39:07.350Z,11.24
2019-04-04T22:41:35.145Z,11.23
2019-04-04T22:44:03.890Z,11.28
2019-04-04T22:46:31.804Z,11.24
2019-04-04T22:48:59.519Z,11.15
2019-04-04T22:51:27.271Z,11.17
2019-04-04T22:53:55.000Z,11.24
2019-04-04T22:56:22.771Z,11.34
2019-04-04T22:58:50.533Z,11.34
2019-04-04T23:01:18.299Z,11.05
2019-04-04T23:03:46.033Z,10.98
2019-04-04T23:06:14.126Z,11.06
2019-04-04T23:08:41.857Z,11.28
2019-04-04T23:11:09.608Z,11.29
2019-04-04T23:13:37.395Z,11.25
2019-04-04T23:16:05.154Z,11.22
2019-04-04T23:18:32.877Z,11.19
2019-04-04T23:21:00.688Z,11.32
2019-04-04T23:23:28.379Z,11.20
2019-04-04T23:25:56.136Z,11.13
2019-04-04T23:28:23.903Z,11.23
2019-04-04T23:30:51.637Z,11.17
2019-04-04T23:33:19.454Z,11.16
2019-04-04T23:35:47.248Z,11.17
2019-04-04T23:38:14.997Z,11.15
2019-04-04T23:40:42.811Z,11.22
2019-04-04T23:43:10.529Z,11.32
2019-04-04T23:45:38.288Z,11.50
2019-04-04T23:48:06.024Z,11.56
2019-04-04T23:50:33.757Z,11.53
2019-04-04T23:53:01.551Z,11.45
2019-04-04T23:55:29.288Z,11.38
2019-04-04T23:57:57.540Z,11.20
